METAR Formatted Surface Weather Observation
Issued by NWS

Home | Current Version | Previous Version | Text Only | Print | Product List | Glossary On
Versions: 1 2
000
SPZS31 NSTU 060612
MTRSPP
SPECI NSTU 060604Z 36008KT 5SM TS FEW005 BKN013CB OVC040 28/27 A2977
 TSB04=


USA.gov is the U.S. government's official web portal to all federal, state and local government web resources and services.